Hickory Knoll, North Carolina
Current Conditions -  °F | °C
As of 4:35 PM on Saturday 22 Nov 2014 (Local Time) from KRHP Reporting Station
Scattered Clouds Scattered Clouds  
Wind Chill: 57°   Ceiling: Unl
Heat Index: 57°   Visibility: 10mi
Dew Point: 34°   Wind: 3mph
Humidity: 42%   Direction: 180°S
Pressure: 30.27"   Gusts: NA
Location:  35.1737°N, 83.4215°W
Report Text: KRHP 222135Z AUTO 18003KT 10SM SCT047 14/01 A3027 RMK AO2 T01380010
Loading
Personal Weather Stations






























Interactive Weather Map New forecast layout! Learn more

10-Day Weather Forecast

Advertisements
Track Severe Weather on mobile